createdAt,value
2019-03-26T05:28:49.164Z,17.23
2019-03-26T05:31:18.838Z,18.03
2019-03-26T05:33:48.534Z,17.20
2019-03-26T05:36:18.309Z,17.97
2019-03-26T05:38:48.171Z,16.07
2019-03-26T05:41:20.385Z,15.23
2019-03-26T05:43:51.300Z,14.43
2019-03-26T05:46:21.278Z,14.27
2019-03-26T05:48:50.991Z,14.87
2019-03-26T05:51:20.783Z,18.23
2019-03-26T05:53:51.179Z,17.43
2019-03-26T05:56:20.880Z,16.93
2019-03-26T05:58:50.966Z,16.53
2019-03-26T06:01:20.746Z,20.37
2019-03-26T06:03:50.442Z,17.02
2019-03-26T06:06:20.779Z,19.57
2019-03-26T06:08:50.508Z,18.03
2019-03-26T06:11:20.209Z,19.77
2019-03-26T06:13:49.988Z,19.33
2019-03-26T06:16:20.840Z,17.52
2019-03-26T06:18:50.559Z,17.13
2019-03-26T06:21:20.256Z,18.65
2019-03-26T06:23:50.001Z,18.90
2019-03-26T06:26:21.177Z,16.03
2019-03-26T06:28:50.922Z,17.27
2019-03-26T06:31:20.917Z,17.12
2019-03-26T06:33:50.632Z,17.80
2019-03-26T06:36:20.420Z,14.77
2019-03-26T06:38:50.084Z,16.20
2019-03-26T06:41:19.785Z,18.43
2019-03-26T06:43:49.680Z,14.87
2019-03-26T06:46:22.242Z,14.50
2019-03-26T06:48:52.032Z,16.97
2019-03-26T06:51:24.763Z,12.97
2019-03-26T06:53:54.652Z,13.20
2019-03-26T06:56:25.159Z,14.07
2019-03-26T06:58:54.833Z,14.60
2019-03-26T07:01:25.343Z,12.90
2019-03-26T07:03:55.028Z,13.73
2019-03-26T07:06:24.846Z,13.13
2019-03-26T07:08:54.649Z,15.07
2019-03-26T07:11:24.618Z,13.90
2019-03-26T07:13:54.325Z,14.10
2019-03-26T07:16:24.027Z,12.90
2019-03-26T07:18:53.825Z,13.07
2019-03-26T07:21:23.607Z,13.23
2019-03-26T07:23:53.279Z,12.43
2019-03-26T07:26:23.127Z,12.30
2019-03-26T07:28:52.871Z,13.27
2019-03-26T07:31:22.557Z,13.40
2019-03-26T07:33:52.273Z,12.73
2019-03-26T07:36:21.967Z,11.07
2019-03-26T07:38:51.657Z,11.80
2019-03-26T07:41:21.356Z,12.47
2019-03-26T07:43:51.170Z,11.37
2019-03-26T07:46:21.514Z,11.30
2019-03-26T07:48:51.378Z,11.70
2019-03-26T07:51:21.579Z,12.53
2019-03-26T07:53:51.577Z,12.23
2019-03-26T07:56:21.347Z,9.70
2019-03-26T07:58:51.065Z,11.60
2019-03-26T08:01:20.773Z,10.20
2019-03-26T08:03:54.964Z,10.87
2019-03-26T08:06:24.690Z,12.93
2019-03-26T08:08:54.542Z,10.27
2019-03-26T08:11:24.244Z,11.73
2019-03-26T08:13:54.404Z,11.53
2019-03-26T08:16:24.144Z,12.57
2019-03-26T08:18:54.052Z,10.23
2019-03-26T08:21:23.744Z,9.10
2019-03-26T08:23:53.688Z,9.63
2019-03-26T08:26:23.370Z,8.87
2019-03-26T08:28:53.136Z,10.83
2019-03-26T08:31:22.896Z,8.40
2019-03-26T08:33:52.635Z,9.17
2019-03-26T08:36:22.557Z,8.37
2019-03-26T08:38:52.244Z,10.13
2019-03-26T08:41:22.013Z,8.53
2019-03-26T08:43:51.778Z,7.70
2019-03-26T08:46:21.452Z,7.23
2019-03-26T08:48:51.276Z,9.63
2019-03-26T08:51:20.958Z,8.20
2019-03-26T08:53:50.673Z,7.93
2019-03-26T08:56:20.427Z,6.37
2019-03-26T08:58:50.573Z,7.40
2019-03-26T09:01:20.976Z,9.23
2019-03-26T09:03:50.815Z,7.10
2019-03-26T09:06:20.558Z,7.97
2019-03-26T09:08:50.271Z,8.20
2019-03-26T09:11:20.126Z,6.97
2019-03-26T09:13:49.829Z,8.10
2019-03-26T09:16:19.695Z,6.80
2019-03-26T09:18:49.583Z,7.57
2019-03-26T09:21:19.319Z,7.17
2019-03-26T09:23:49.119Z,5.40
2019-03-26T09:26:19.042Z,6.40
2019-03-26T09:28:48.847Z,6.03
2019-03-26T09:31:18.797Z,5.33
2019-03-26T09:33:48.619Z,5.70
2019-03-26T09:36:18.355Z,5.80
2019-03-26T09:38:48.032Z,5.60
2019-03-26T09:41:17.754Z,5.47
2019-03-26T09:43:47.461Z,7.93
2019-03-26T09:46:17.264Z,5.67
2019-03-26T09:48:47.250Z,5.23
2019-03-26T09:51:16.941Z,6.67
2019-03-26T09:53:46.682Z,6.07
2019-03-26T09:56:28.246Z,8.50
2019-03-26T09:58:47.930Z,7.13
2019-03-26T10:01:17.814Z,7.90
2019-03-26T10:03:47.488Z,7.70
2019-03-26T10:06:23.191Z,7.73
2019-03-26T10:08:59.840Z,6.33
2019-03-26T10:11:29.778Z,7.67
2019-03-26T10:13:59.494Z,7.23
2019-03-26T10:16:29.650Z,7.90
2019-03-26T10:18:59.787Z,7.37
2019-03-26T10:21:29.496Z,6.93
2019-03-26T10:23:59.264Z,5.70
2019-03-26T10:26:29.222Z,7.63
2019-03-26T10:28:58.918Z,6.03
2019-03-26T10:31:28.626Z,7.13
2019-03-26T10:33:58.687Z,6.43
2019-03-26T10:36:28.756Z,7.07
2019-03-26T10:39:05.484Z,6.03
2019-03-26T10:41:29.859Z,6.57
2019-03-26T10:43:59.580Z,6.93
2019-03-26T10:46:29.284Z,6.93
2019-03-26T10:48:59.115Z,5.83
2019-03-26T10:51:28.875Z,8.03
2019-03-26T10:53:58.622Z,6.47
2019-03-26T10:56:28.319Z,6.17
2019-03-26T10:58:58.194Z,8.28
2019-03-26T11:01:27.880Z,5.47
2019-03-26T11:03:57.579Z,5.47
2019-03-26T11:06:27.259Z,6.70
2019-03-26T11:08:56.992Z,5.70
2019-03-26T11:11:26.734Z,5.28
2019-03-26T11:13:58.760Z,4.97
2019-03-26T11:16:27.854Z,6.20
2019-03-26T11:18:57.608Z,9.40
2019-03-26T11:21:27.267Z,7.27
2019-03-26T11:23:56.999Z,6.77
2019-03-26T11:26:26.917Z,4.53
2019-03-26T11:28:56.649Z,5.53
2019-03-26T11:31:26.364Z,6.30
2019-03-26T11:33:56.231Z,6.60
2019-03-26T11:36:25.983Z,5.40
2019-03-26T11:38:55.791Z,5.63
2019-03-26T11:41:25.619Z,4.80
2019-03-26T11:43:55.321Z,6.00
2019-03-26T11:46:25.173Z,6.30
2019-03-26T11:48:54.903Z,6.13
2019-03-26T11:51:24.891Z,7.33
2019-03-26T11:53:54.622Z,7.40
2019-03-26T11:56:24.911Z,7.13
2019-03-26T11:58:54.822Z,6.83
2019-03-26T12:01:25.051Z,5.37
2019-03-26T12:03:54.799Z,6.43
2019-03-26T12:06:24.578Z,5.63
2019-03-26T12:08:54.289Z,7.43
2019-03-26T12:11:24.029Z,6.23
2019-03-26T12:13:53.804Z,5.03
2019-03-26T12:16:23.669Z,6.07
2019-03-26T12:18:53.349Z,4.63
2019-03-26T12:21:23.050Z,3.87
2019-03-26T12:23:52.787Z,5.73
2019-03-26T12:26:22.525Z,4.73
2019-03-26T12:28:52.359Z,4.45
2019-03-26T12:31:22.083Z,5.70
2019-03-26T12:33:51.776Z,6.30
2019-03-26T12:36:21.520Z,5.67
2019-03-26T12:38:51.260Z,4.50
2019-03-26T12:41:21.050Z,7.73
2019-03-26T12:43:50.914Z,6.07
2019-03-26T12:46:20.823Z,5.60
2019-03-26T12:48:50.572Z,7.23
2019-03-26T12:51:20.498Z,6.30
2019-03-26T12:53:50.492Z,5.50
2019-03-26T12:56:21.807Z,6.53
2019-03-26T12:58:51.604Z,5.60
2019-03-26T13:01:21.430Z,5.60
2019-03-26T13:03:51.339Z,4.83
2019-03-26T13:06:21.276Z,6.10
2019-03-26T13:08:51.062Z,4.63
2019-03-26T13:11:21.044Z,6.10
2019-03-26T13:13:51.251Z,5.40
2019-03-26T13:16:20.928Z,5.87
2019-03-26T13:18:50.643Z,5.90
2019-03-26T13:21:20.644Z,6.30
2019-03-26T13:23:51.822Z,7.83
2019-03-26T13:26:29.174Z,9.20
2019-03-26T13:28:58.974Z,6.40
2019-03-26T13:31:28.772Z,6.47
2019-03-26T13:33:58.609Z,6.73
2019-03-26T13:36:28.503Z,5.67
2019-03-26T13:38:58.338Z,5.47
2019-03-26T13:41:29.947Z,5.53
2019-03-26T13:43:59.684Z,5.33
2019-03-26T13:46:29.434Z,5.77
2019-03-26T13:49:02.233Z,6.47
2019-03-26T13:51:32.045Z,6.27
2019-03-26T13:54:01.812Z,5.43
2019-03-26T13:56:31.520Z,8.30
2019-03-26T13:59:01.774Z,7.30
2019-03-26T14:01:31.477Z,6.97
2019-03-26T14:04:01.166Z,5.47
2019-03-26T14:06:32.523Z,6.87
2019-03-26T14:09:02.513Z,5.73
2019-03-26T14:11:32.177Z,5.10
2019-03-26T14:14:01.869Z,9.03
2019-03-26T14:16:31.549Z,6.27
2019-03-26T14:19:01.315Z,6.20
2019-03-26T14:21:31.105Z,6.47
2019-03-26T14:24:00.901Z,6.23
2019-03-26T14:26:30.586Z,8.13
2019-03-26T14:29:00.352Z,6.47
2019-03-26T14:31:30.035Z,6.27
2019-03-26T14:33:59.741Z,5.03
2019-03-26T14:36:29.428Z,8.37
2019-03-26T14:38:59.119Z,6.07
2019-03-26T14:41:28.859Z,6.17
2019-03-26T14:43:58.549Z,7.00
2019-03-26T14:46:28.243Z,5.80
2019-03-26T14:48:57.968Z,5.93
2019-03-26T14:51:28.049Z,6.80
2019-03-26T14:53:57.773Z,6.43
2019-03-26T14:56:27.521Z,5.73
2019-03-26T14:58:57.548Z,6.83
2019-03-26T15:01:27.217Z,4.63
2019-03-26T15:03:56.878Z,5.40
2019-03-26T15:06:26.575Z,5.57
2019-03-26T15:08:56.273Z,5.43
2019-03-26T15:11:25.994Z,5.07
2019-03-26T15:13:55.799Z,5.47
2019-03-26T15:16:25.601Z,6.00
2019-03-26T15:18:56.898Z,5.30
2019-03-26T15:21:27.821Z,5.13
2019-03-26T15:23:57.510Z,6.87
2019-03-26T15:26:30.385Z,6.47
2019-03-26T15:29:00.199Z,6.80
2019-03-26T15:31:29.919Z,5.97
2019-03-26T15:33:59.611Z,8.30
2019-03-26T15:36:29.324Z,6.57
2019-03-26T15:38:59.040Z,7.10
2019-03-26T15:41:30.482Z,6.53
2019-03-26T15:44:00.657Z,6.47
2019-03-26T15:46:30.537Z,6.87
2019-03-26T15:49:00.308Z,8.07
2019-03-26T15:51:30.024Z,8.20
2019-03-26T15:53:59.692Z,6.13
2019-03-26T15:56:29.358Z,7.57
2019-03-26T15:58:59.348Z,7.63
2019-03-26T16:01:48.314Z,5.80
2019-03-26T16:04:18.348Z,7.63
2019-03-26T16:06:48.002Z,7.90
2019-03-26T16:09:17.809Z,7.63
2019-03-26T16:11:47.506Z,6.83
2019-03-26T16:14:17.259Z,6.77
2019-03-26T16:16:49.905Z,6.53
2019-03-26T16:19:32.276Z,9.17
2019-03-26T16:21:51.046Z,7.90
2019-03-26T16:24:20.719Z,6.80
2019-03-26T16:26:50.490Z,10.10
2019-03-26T16:29:20.414Z,6.70
2019-03-26T16:31:50.122Z,7.43
2019-03-26T16:34:19.809Z,6.63
2019-03-26T16:36:59.421Z,6.73
2019-03-26T16:39:21.024Z,8.80
2019-03-26T16:41:50.781Z,5.70
2019-03-26T16:44:20.664Z,7.17
2019-03-26T16:46:50.579Z,6.83
2019-03-26T16:49:20.287Z,5.90
2019-03-26T16:51:50.131Z,8.83
2019-03-26T16:54:19.824Z,8.53
2019-03-26T16:56:49.570Z,8.20
2019-03-26T16:59:19.663Z,6.77
2019-03-26T17:01:49.466Z,6.70
2019-03-26T17:04:19.174Z,8.73
2019-03-26T17:06:48.899Z,8.87
2019-03-26T17:09:18.620Z,9.27
2019-03-26T17:12:02.445Z,9.40
2019-03-26T17:14:22.839Z,11.80
2019-03-26T17:16:52.844Z,10.03
2019-03-26T17:19:22.638Z,7.80
2019-03-26T17:21:52.327Z,8.70
2019-03-26T17:24:22.127Z,10.97
2019-03-26T17:26:52.110Z,12.17
2019-03-26T17:29:21.808Z,8.80
2019-03-26T17:31:51.897Z,9.47
2019-03-26T17:34:23.839Z,9.27
2019-03-26T17:36:53.529Z,11.60
2019-03-26T17:39:23.216Z,12.07
2019-03-26T17:41:52.935Z,10.83
2019-03-26T17:44:22.703Z,7.60
2019-03-26T17:46:52.491Z,10.50
2019-03-26T17:49:22.167Z,9.30
2019-03-26T17:51:52.079Z,10.07
2019-03-26T17:54:21.840Z,12.63
2019-03-26T17:56:51.559Z,13.63
2019-03-26T17:59:21.504Z,9.33
2019-03-26T18:01:53.126Z,10.70
2019-03-26T18:04:23.155Z,10.43
2019-03-26T18:06:52.835Z,9.10
2019-03-26T18:09:23.139Z,8.27
2019-03-26T18:11:52.945Z,8.73
2019-03-26T18:14:22.704Z,7.87
2019-03-26T18:16:52.630Z,11.30
2019-03-26T18:19:22.415Z,10.50
2019-03-26T18:21:52.298Z,9.27
2019-03-26T18:24:22.077Z,9.50
2019-03-26T18:26:51.785Z,9.60
2019-03-26T18:29:21.484Z,8.70
2019-03-26T18:31:51.359Z,9.17
2019-03-26T18:34:21.206Z,13.03
2019-03-26T18:36:50.894Z,11.33
2019-03-26T18:39:20.694Z,9.83
2019-03-26T18:41:50.428Z,8.70
2019-03-26T18:44:20.312Z,10.60
2019-03-26T18:46:50.206Z,9.37
2019-03-26T18:49:19.933Z,11.30
2019-03-26T18:51:49.630Z,11.23
2019-03-26T18:54:19.416Z,10.40
2019-03-26T18:56:49.125Z,9.53
2019-03-26T18:59:19.187Z,10.70
2019-03-26T19:01:48.896Z,9.17
2019-03-26T19:04:18.755Z,9.47
2019-03-26T19:06:48.619Z,11.43
2019-03-26T19:09:18.414Z,9.80
2019-03-26T19:11:48.157Z,9.73
2019-03-26T19:14:18.121Z,16.43
2019-03-26T19:16:47.897Z,11.47
2019-03-26T19:19:17.628Z,12.10
2019-03-26T19:21:47.767Z,11.37
2019-03-26T19:24:17.728Z,10.97
2019-03-26T19:26:47.586Z,10.47
2019-03-26T19:29:17.418Z,11.37
2019-03-26T19:31:47.152Z,11.03
2019-03-26T19:34:16.985Z,9.83
2019-03-26T19:36:46.739Z,10.10
2019-03-26T19:39:16.548Z,10.93
2019-03-26T19:41:46.407Z,9.93
2019-03-26T19:44:16.351Z,9.17
2019-03-26T19:46:46.110Z,14.53
2019-03-26T19:49:15.913Z,9.23
2019-03-26T19:51:45.627Z,10.00
2019-03-26T19:54:15.478Z,12.37
2019-03-26T19:56:45.186Z,13.50
2019-03-26T19:59:14.975Z,14.57
2019-03-26T20:01:44.783Z,14.47
2019-03-26T20:04:16.122Z,13.07
2019-03-26T20:06:48.730Z,14.30
2019-03-26T20:09:18.445Z,15.33
2019-03-26T20:11:48.191Z,11.37
2019-03-26T20:14:17.906Z,12.30
2019-03-26T20:16:47.802Z,9.80
2019-03-26T20:19:17.529Z,9.00
2019-03-26T20:21:49.933Z,7.47
2019-03-26T20:24:19.938Z,9.73
2019-03-26T20:26:49.727Z,7.17
2019-03-26T20:29:19.491Z,9.60
2019-03-26T20:31:49.218Z,7.87
2019-03-26T20:34:18.987Z,10.80
2019-03-26T20:36:48.712Z,12.27
2019-03-26T20:39:18.508Z,8.47
2019-03-26T20:41:48.507Z,9.67
2019-03-26T20:44:18.470Z,11.50
2019-03-26T20:46:48.172Z,8.77
2019-03-26T20:49:17.960Z,8.23
2019-03-26T20:51:49.204Z,9.47
2019-03-26T20:54:19.322Z,9.27
2019-03-26T20:56:50.032Z,6.87
2019-03-26T20:59:20.089Z,9.43
2019-03-26T21:01:49.864Z,10.90
2019-03-26T21:04:19.566Z,10.27
2019-03-26T21:06:49.268Z,8.63
2019-03-26T21:09:19.044Z,8.97
2019-03-26T21:11:51.168Z,9.27
2019-03-26T21:14:20.916Z,9.87
2019-03-26T21:16:50.971Z,9.90
2019-03-26T21:19:20.720Z,9.17
2019-03-26T21:21:52.913Z,10.33
2019-03-26T21:24:21.998Z,10.15
2019-03-26T21:26:51.693Z,16.50
2019-03-26T21:29:21.449Z,13.93
2019-03-26T21:31:51.171Z,15.53
2019-03-26T21:34:30.401Z,14.80
2019-03-26T21:36:52.656Z,15.80
2019-03-26T21:39:24.537Z,15.77
2019-03-26T21:41:54.353Z,14.80
2019-03-26T21:44:24.046Z,13.70
2019-03-26T21:46:53.714Z,14.77
2019-03-26T21:49:23.506Z,18.20
2019-03-26T21:51:53.403Z,14.73
2019-03-26T21:54:23.810Z,12.73
2019-03-26T21:56:54.460Z,11.83
2019-03-26T21:59:24.416Z,14.37
2019-03-26T22:01:54.283Z,10.73
2019-03-26T22:04:24.152Z,10.70
2019-03-26T22:06:54.814Z,9.13
2019-03-26T22:09:24.510Z,10.70
2019-03-26T22:11:56.646Z,7.80
2019-03-26T22:14:26.399Z,10.77
2019-03-26T22:16:56.101Z,11.70
2019-03-26T22:19:28.828Z,10.17
2019-03-26T22:21:57.314Z,12.87
2019-03-26T22:24:27.088Z,17.17
2019-03-26T22:26:56.846Z,11.20
2019-03-26T22:29:26.584Z,12.57
2019-03-26T22:31:56.594Z,13.73
2019-03-26T22:34:26.296Z,24.70
2019-03-26T22:36:55.969Z,26.20
2019-03-26T22:39:25.710Z,15.47
2019-03-26T22:41:55.479Z,13.47
2019-03-26T22:44:31.606Z,14.77
2019-03-26T22:46:59.392Z,10.50
2019-03-26T22:49:29.107Z,11.53
2019-03-26T22:51:58.900Z,12.17
2019-03-26T22:54:32.025Z,16.63
2019-03-26T22:57:01.653Z,11.50
